createdAt,value
2017-05-26T00:00:44.322Z,945.5
2017-05-26T00:01:52.516Z,945.5
2017-05-26T00:03:00.617Z,945.6
2017-05-26T00:04:08.578Z,945.5
2017-05-26T00:05:16.789Z,945.5
2017-05-26T00:06:24.752Z,945.5
2017-05-26T00:07:32.885Z,945.5
2017-05-26T00:08:41.036Z,945.5
2017-05-26T00:09:49.009Z,945.5
2017-05-26T00:10:57.094Z,945.5
2017-05-26T00:12:05.182Z,945.5
2017-05-26T00:13:13.268Z,945.5
2017-05-26T00:14:21.499Z,945.4
2017-05-26T00:15:29.440Z,945.4
2017-05-26T00:16:37.616Z,945.4
2017-05-26T00:17:45.612Z,945.5
2017-05-26T00:18:53.699Z,945.4
2017-05-26T00:20:01.903Z,945.4
2017-05-26T00:21:09.926Z,945.4
2017-05-26T00:22:17.955Z,945.4
2017-05-26T00:23:26.041Z,945.4
2017-05-26T00:24:34.313Z,945.4
2017-05-26T00:25:42.276Z,945.4
2017-05-26T00:26:50.301Z,945.4
2017-05-26T00:27:58.385Z,945.4
2017-05-26T00:29:06.470Z,945.4
2017-05-26T00:30:14.554Z,945.4
2017-05-26T00:31:22.781Z,945.3
2017-05-26T00:32:30.729Z,945.3
2017-05-26T00:33:38.814Z,945.3
2017-05-26T00:34:46.915Z,945.3
2017-05-26T00:35:54.990Z,945.3
2017-05-26T00:37:03.237Z,945.3
2017-05-26T00:38:11.158Z,945.3
2017-05-26T00:39:19.241Z,945.3
2017-05-26T00:40:27.328Z,945.3
2017-05-26T00:41:35.413Z,945.3
2017-05-26T00:42:43.719Z,945.3
2017-05-26T00:43:51.587Z,945.3
2017-05-26T00:44:59.671Z,945.3
2017-05-26T00:46:07.764Z,945.3
2017-05-26T00:47:15.847Z,945.3
2017-05-26T00:48:24.052Z,945.3
2017-05-26T00:49:32.064Z,945.3
2017-05-26T00:50:40.102Z,945.3
2017-05-26T00:51:48.188Z,945.3
2017-05-26T00:52:56.332Z,945.3
2017-05-26T00:54:04.483Z,945.3
2017-05-26T00:55:12.467Z,945.3
2017-05-26T00:56:20.535Z,945.3
2017-05-26T00:57:28.619Z,945.3
2017-05-26T00:58:36.705Z,945.3
2017-05-26T00:59:44.912Z,945.3
2017-05-26T01:00:52.875Z,945.2
2017-05-26T01:02:01.023Z,945.3
2017-05-26T01:03:09.049Z,945.3
2017-05-26T01:04:17.134Z,945.3
2017-05-26T01:05:25.278Z,945.2
2017-05-26T01:06:33.306Z,945.3
2017-05-26T01:07:41.469Z,945.3
2017-05-26T01:08:49.699Z,945.3
2017-05-26T01:09:57.563Z,945.2
2017-05-26T01:11:05.769Z,945.3
2017-05-26T01:12:13.735Z,945.3
2017-05-26T01:13:21.822Z,945.3
2017-05-26T01:14:29.965Z,945.2
2017-05-26T01:15:37.993Z,945.2
2017-05-26T01:16:46.134Z,945.2
2017-05-26T01:17:54.162Z,945.2
2017-05-26T01:19:02.247Z,945.2
2017-05-26T01:20:10.336Z,945.2
2017-05-26T01:21:18.423Z,945.2
2017-05-26T01:22:26.567Z,945.2
2017-05-26T01:23:34.590Z,945.2
2017-05-26T01:24:42.803Z,945.2
2017-05-26T01:25:50.762Z,945.2
2017-05-26T01:26:58.849Z,945.2
2017-05-26T01:28:07.056Z,945.2
2017-05-26T01:29:15.019Z,945.2
2017-05-26T01:30:23.103Z,945.2
2017-05-26T01:31:31.365Z,945.2
2017-05-26T01:32:39.277Z,945.2
2017-05-26T01:33:47.420Z,945.2
2017-05-26T01:34:55.449Z,945.2
2017-05-26T01:36:03.539Z,945.2
2017-05-26T01:37:11.623Z,945.1
2017-05-26T01:38:19.726Z,945.2
2017-05-26T01:39:27.845Z,945.2
2017-05-26T01:40:35.993Z,945.2
2017-05-26T01:41:43.961Z,945.2
2017-05-26T01:42:52.047Z,945.2
2017-05-26T01:44:00.165Z,945.2
2017-05-26T01:45:08.340Z,945.2
2017-05-26T01:46:16.303Z,945.2
2017-05-26T01:47:24.389Z,945.2
2017-05-26T01:48:32.475Z,945.2
2017-05-26T01:49:40.560Z,945.2
2017-05-26T01:50:48.702Z,945.2
2017-05-26T01:51:56.732Z,945.2
2017-05-26T01:53:04.816Z,945.1
2017-05-26T01:54:12.909Z,945.2
2017-05-26T01:55:20.995Z,945.2
2017-05-26T01:56:29.154Z,945.2
2017-05-26T01:57:37.164Z,945.2
2017-05-26T01:58:45.251Z,945.2
2017-05-26T01:59:53.334Z,945.2
2017-05-26T02:01:01.423Z,945.2
2017-05-26T02:02:09.629Z,945.2
2017-05-26T02:03:17.592Z,945.1
2017-05-26T02:04:25.682Z,945.2
2017-05-26T02:05:33.764Z,945.2
2017-05-26T02:06:42.031Z,945.1
2017-05-26T02:07:49.992Z,945.1
2017-05-26T02:08:58.026Z,945.2
2017-05-26T02:10:06.131Z,945.1
2017-05-26T02:11:14.200Z,945.1
2017-05-26T02:12:22.406Z,945.1
2017-05-26T02:13:30.622Z,945.1
2017-05-26T02:14:38.457Z,945.1
2017-05-26T02:15:46.539Z,945.1
2017-05-26T02:16:54.628Z,945.1
2017-05-26T02:18:02.721Z,945.1
2017-05-26T02:19:11.093Z,945.1
2017-05-26T02:20:18.891Z,945.1
2017-05-26T02:21:26.978Z,945.1
2017-05-26T02:22:35.063Z,945.1
2017-05-26T02:23:43.148Z,945.0
2017-05-26T02:24:51.432Z,945.0
2017-05-26T02:25:59.477Z,945.0
2017-05-26T02:27:07.406Z,945.0
2017-05-26T02:28:15.609Z,945.0
2017-05-26T02:29:23.576Z,945.0
2017-05-26T02:30:31.910Z,945.0
2017-05-26T02:31:39.847Z,945.0
2017-05-26T02:32:47.833Z,945.0
2017-05-26T02:33:55.918Z,945.0
2017-05-26T02:35:04.006Z,945.0
2017-05-26T02:36:12.142Z,945.0
2017-05-26T02:37:20.203Z,945.0
2017-05-26T02:38:28.319Z,945.0
2017-05-26T02:39:36.346Z,945.0
2017-05-26T02:40:44.431Z,945.0
2017-05-26T02:41:52.572Z,945.0
2017-05-26T02:43:00.602Z,945.0
2017-05-26T02:44:08.808Z,945.0
2017-05-26T02:45:16.773Z,945.0
2017-05-26T02:46:24.857Z,945.0
2017-05-26T02:47:33.191Z,945.0
2017-05-26T02:48:41.028Z,945.0
2017-05-26T02:49:49.118Z,945.0
2017-05-26T02:50:57.233Z,945.0
2017-05-26T02:52:05.287Z,945.0
2017-05-26T02:53:13.434Z,945.0
2017-05-26T02:54:21.463Z,945.0
2017-05-26T02:55:29.549Z,945.0
2017-05-26T02:56:37.635Z,945.0
2017-05-26T02:57:45.722Z,945.0
2017-05-26T02:58:53.865Z,944.9
2017-05-26T03:00:02.013Z,944.9
2017-05-26T03:01:09.980Z,944.9
2017-05-26T03:02:18.062Z,944.9
2017-05-26T03:03:26.147Z,944.9
2017-05-26T03:04:34.483Z,944.9
2017-05-26T03:05:42.318Z,944.9
2017-05-26T03:06:50.557Z,945.0
2017-05-26T03:07:58.655Z,944.9
2017-05-26T03:09:06.585Z,944.9
2017-05-26T03:10:14.718Z,944.9
2017-05-26T03:11:22.751Z,944.9
2017-05-26T03:12:30.844Z,945.0
2017-05-26T03:13:39.001Z,944.9
2017-05-26T03:14:47.021Z,944.9
2017-05-26T03:15:55.225Z,944.9
2017-05-26T03:17:03.191Z,944.9
2017-05-26T03:18:11.892Z,944.9
2017-05-26T03:19:19.362Z,945.0
2017-05-26T03:20:27.492Z,944.9
2017-05-26T03:21:35.781Z,944.9
2017-05-26T03:22:43.619Z,944.9
2017-05-26T03:23:51.706Z,945.0
2017-05-26T03:24:59.796Z,945.0
2017-05-26T03:26:07.875Z,944.9
2017-05-26T03:27:16.026Z,945.0
2017-05-26T03:28:24.047Z,945.0
2017-05-26T03:29:32.148Z,945.0
2017-05-26T03:30:40.220Z,945.0
2017-05-26T03:31:48.553Z,944.9
2017-05-26T03:32:56.447Z,945.0
2017-05-26T03:34:04.476Z,944.9
2017-05-26T03:35:12.561Z,944.9
2017-05-26T03:36:20.832Z,945.0
2017-05-26T03:37:28.848Z,945.0
2017-05-26T03:38:37.065Z,944.9
2017-05-26T03:39:44.907Z,944.9
2017-05-26T03:40:52.991Z,945.0
2017-05-26T03:42:01.083Z,945.0
2017-05-26T03:43:09.351Z,944.9
2017-05-26T03:44:17.367Z,945.0
2017-05-26T03:45:25.334Z,945.0
2017-05-26T03:46:33.419Z,945.0
2017-05-26T03:47:41.561Z,945.0
2017-05-26T03:48:49.592Z,945.0
2017-05-26T03:49:57.732Z,945.0
2017-05-26T03:51:05.760Z,945.0
2017-05-26T03:52:13.846Z,945.0
2017-05-26T03:53:21.934Z,945.0
2017-05-26T03:54:30.076Z,945.0
2017-05-26T03:55:38.235Z,945.0
2017-05-26T03:56:46.266Z,945.0
2017-05-26T03:57:54.275Z,945.0
2017-05-26T03:59:02.359Z,945.0
2017-05-26T04:00:10.446Z,945.0
2017-05-26T04:01:18.777Z,945.0
2017-05-26T04:02:26.615Z,944.9
2017-05-26T04:03:34.822Z,945.0
2017-05-26T04:04:42.791Z,945.0
2017-05-26T04:05:50.875Z,945.0
2017-05-26T04:06:59.016Z,945.0
2017-05-26T04:08:07.045Z,945.0
2017-05-26T04:09:15.127Z,945.0
2017-05-26T04:10:23.215Z,945.0
2017-05-26T04:11:31.409Z,945.0
2017-05-26T04:12:39.637Z,945.0
2017-05-26T04:13:47.473Z,945.0
2017-05-26T04:14:55.564Z,945.0
2017-05-26T04:16:03.648Z,945.0
2017-05-26T04:17:11.736Z,945.0
2017-05-26T04:18:20.136Z,945.0
2017-05-26T04:19:27.962Z,945.0
2017-05-26T04:20:35.994Z,945.0
2017-05-26T04:21:44.078Z,945.0
2017-05-26T04:22:52.166Z,945.0
2017-05-26T04:24:00.430Z,944.9
2017-05-26T04:25:08.401Z,945.0
2017-05-26T04:26:16.419Z,944.9
2017-05-26T04:27:24.505Z,944.9
2017-05-26T04:28:32.674Z,944.9
2017-05-26T04:29:40.738Z,944.9
2017-05-26T04:30:48.769Z,944.9
2017-05-26T04:31:56.979Z,944.9
2017-05-26T04:33:04.941Z,944.9
2017-05-26T04:34:13.217Z,944.9
2017-05-26T04:35:21.984Z,944.9
2017-05-26T04:36:29.419Z,944.9
2017-05-26T04:37:37.562Z,944.9
2017-05-26T04:38:45.978Z,944.9
2017-05-26T04:39:53.714Z,944.9
2017-05-26T04:41:02.302Z,944.9
2017-05-26T04:42:09.855Z,945.0
2017-05-26T04:43:17.954Z,944.9
2017-05-26T04:44:26.094Z,944.9
2017-05-26T04:45:33.882Z,944.9
2017-05-26T04:46:42.091Z,944.9
2017-05-26T04:47:50.238Z,944.9
2017-05-26T04:48:58.143Z,945.0
2017-05-26T04:50:06.230Z,945.0
2017-05-26T04:51:14.368Z,944.9
2017-05-26T04:52:22.519Z,944.9
2017-05-26T04:53:30.516Z,944.9
2017-05-26T04:54:38.606Z,945.0
2017-05-26T04:55:47.243Z,945.0
2017-05-26T04:56:55.150Z,945.0
2017-05-26T04:58:02.947Z,945.0
2017-05-26T04:59:10.914Z,945.0
2017-05-26T05:00:19.081Z,945.0
2017-05-26T05:01:27.085Z,945.0
2017-05-26T05:02:35.172Z,945.0
2017-05-26T05:03:43.310Z,945.0
2017-05-26T05:04:51.335Z,945.0
2017-05-26T05:05:59.456Z,945.0
2017-05-26T05:07:07.675Z,945.0
2017-05-26T05:08:15.598Z,945.0
2017-05-26T05:09:23.802Z,945.0
2017-05-26T05:10:31.768Z,945.1
2017-05-26T05:11:39.853Z,945.1
2017-05-26T05:12:47.977Z,945.0
2017-05-26T05:13:56.024Z,945.1
2017-05-26T05:15:04.166Z,945.1
2017-05-26T05:16:12.197Z,945.1
2017-05-26T05:17:20.281Z,945.1
2017-05-26T05:18:28.413Z,945.1
2017-05-26T05:19:36.453Z,945.1
2017-05-26T05:20:44.659Z,945.1
2017-05-26T05:21:52.625Z,945.1
2017-05-26T05:23:00.774Z,945.2
2017-05-26T05:24:08.795Z,945.1
2017-05-26T05:25:16.971Z,945.1
2017-05-26T05:26:25.024Z,945.1
2017-05-26T05:27:33.051Z,945.1
2017-05-26T05:28:41.143Z,945.1
2017-05-26T05:29:49.222Z,945.1
2017-05-26T05:30:57.385Z,945.1
2017-05-26T05:32:05.515Z,945.1
2017-05-26T05:33:13.480Z,945.1
2017-05-26T05:34:21.565Z,945.1
2017-05-26T05:35:29.651Z,945.1
2017-05-26T05:36:37.736Z,945.1
2017-05-26T05:37:46.003Z,945.1
2017-05-26T05:38:54.028Z,945.1
2017-05-26T05:40:01.998Z,945.2
2017-05-26T05:41:10.082Z,945.2
2017-05-26T05:42:18.173Z,945.2
2017-05-26T05:43:26.344Z,945.2
2017-05-26T05:44:34.336Z,945.2
2017-05-26T05:45:42.419Z,945.2
2017-05-26T05:46:50.503Z,945.2
2017-05-26T05:47:58.591Z,945.2
2017-05-26T05:49:06.797Z,945.2
2017-05-26T05:50:14.851Z,945.2
2017-05-26T05:51:22.847Z,945.2
2017-05-26T05:52:30.931Z,945.2
2017-05-26T05:53:39.015Z,945.2
2017-05-26T05:54:47.154Z,945.2
2017-05-26T05:55:55.241Z,945.3
2017-05-26T05:57:03.277Z,945.2
2017-05-26T05:58:11.354Z,945.3
2017-05-26T05:59:19.436Z,945.3
2017-05-26T06:00:27.640Z,945.3
2017-05-26T06:01:35.604Z,945.3
2017-05-26T06:02:43.686Z,945.3
2017-05-26T06:03:51.772Z,945.3
2017-05-26T06:04:59.860Z,945.4
2017-05-26T06:06:08.061Z,945.4
2017-05-26T06:07:16.026Z,945.4
2017-05-26T06:08:24.109Z,945.3
2017-05-26T06:09:32.194Z,945.3
2017-05-26T06:10:40.400Z,945.4
2017-05-26T06:11:48.481Z,945.4
2017-05-26T06:12:56.445Z,945.4
2017-05-26T06:14:04.529Z,945.3
2017-05-26T06:15:12.613Z,945.4
2017-05-26T06:16:20.762Z,945.4
2017-05-26T06:17:28.846Z,945.4
2017-05-26T06:18:37.026Z,945.4
2017-05-26T06:19:45.135Z,945.4
2017-05-26T06:20:53.051Z,945.4
2017-05-26T06:22:01.131Z,945.5
2017-05-26T06:23:09.331Z,945.4
2017-05-26T06:24:17.295Z,945.5
2017-05-26T06:25:25.508Z,945.5
2017-05-26T06:26:33.584Z,945.5
2017-05-26T06:27:41.549Z,945.5
2017-05-26T06:28:49.762Z,945.5
2017-05-26T06:29:57.722Z,945.5
2017-05-26T06:31:05.918Z,945.5
2017-05-26T06:32:13.964Z,945.5
2017-05-26T06:33:21.969Z,945.5
2017-05-26T06:34:30.111Z,945.5
2017-05-26T06:35:38.141Z,945.5
2017-05-26T06:36:46.228Z,945.5
2017-05-26T06:37:54.350Z,945.5
2017-05-26T06:39:02.403Z,945.5
2017-05-26T06:40:10.604Z,945.5
2017-05-26T06:41:18.567Z,945.4
2017-05-26T06:42:26.772Z,945.5
2017-05-26T06:43:34.736Z,945.4
2017-05-26T06:44:42.820Z,945.5
2017-05-26T06:45:50.966Z,945.5
2017-05-26T06:46:58.991Z,945.5
2017-05-26T06:48:07.078Z,945.5
2017-05-26T06:49:15.201Z,945.5
2017-05-26T06:50:23.248Z,945.4
2017-05-26T06:51:31.386Z,945.5
2017-05-26T06:52:39.414Z,945.5
2017-05-26T06:53:47.501Z,945.5
2017-05-26T06:54:55.688Z,945.5
2017-05-26T06:56:03.669Z,945.5
2017-05-26T06:57:11.873Z,945.5
2017-05-26T06:58:19.896Z,945.5
2017-05-26T06:59:27.927Z,945.5
2017-05-26T07:00:36.129Z,945.5
2017-05-26T07:01:44.098Z,945.5
2017-05-26T07:02:52.297Z,945.5
2017-05-26T07:04:00.262Z,945.5
2017-05-26T07:05:08.346Z,945.5
2017-05-26T07:06:16.434Z,945.5
2017-05-26T07:07:24.642Z,945.5
2017-05-26T07:08:32.657Z,945.5
2017-05-26T07:09:40.687Z,945.4
2017-05-26T07:10:48.771Z,945.4
2017-05-26T07:11:56.855Z,945.4
2017-05-26T07:13:05.065Z,945.5
2017-05-26T07:14:13.147Z,945.5
2017-05-26T07:15:21.117Z,945.5
2017-05-26T07:16:29.197Z,945.5
2017-05-26T07:17:37.282Z,945.5
2017-05-26T07:18:45.456Z,945.5
2017-05-26T07:19:53.690Z,945.5
2017-05-26T07:21:01.537Z,945.5
2017-05-26T07:22:09.622Z,945.5
2017-05-26T07:23:17.707Z,945.5
2017-05-26T07:24:25.793Z,945.5
2017-05-26T07:25:34.032Z,945.6
2017-05-26T07:26:41.963Z,945.6
2017-05-26T07:27:50.053Z,945.6
2017-05-26T07:28:58.134Z,945.6
2017-05-26T07:30:06.301Z,945.6
2017-05-26T07:31:14.447Z,945.6
2017-05-26T07:32:22.427Z,945.6
2017-05-26T07:33:30.476Z,945.6
2017-05-26T07:34:38.561Z,945.6
2017-05-26T07:35:46.646Z,945.6
2017-05-26T07:36:54.911Z,945.6
2017-05-26T07:38:02.818Z,945.6
2017-05-26T07:39:10.903Z,945.6
2017-05-26T07:40:18.985Z,945.6
2017-05-26T07:41:27.076Z,945.6
2017-05-26T07:42:35.278Z,945.6
2017-05-26T07:43:43.242Z,945.5
2017-05-26T07:44:51.325Z,945.5
2017-05-26T07:45:59.531Z,945.5
2017-05-26T07:47:07.496Z,945.6
2017-05-26T07:48:15.710Z,945.6
2017-05-26T07:49:23.846Z,945.5
2017-05-26T07:50:31.749Z,945.6
2017-05-26T07:51:39.835Z,945.6
2017-05-26T07:52:47.923Z,945.6
2017-05-26T07:53:56.124Z,945.6
2017-05-26T07:55:04.196Z,945.5
2017-05-26T07:56:12.176Z,945.6
2017-05-26T07:57:20.303Z,945.6
2017-05-26T07:58:28.343Z,945.6
2017-05-26T07:59:36.550Z,945.6
2017-05-26T08:00:44.548Z,945.6
2017-05-26T08:01:52.722Z,945.6
2017-05-26T08:03:00.684Z,945.5
2017-05-26T08:04:08.769Z,945.6
2017-05-26T08:05:16.976Z,945.6
2017-05-26T08:06:24.946Z,945.6
2017-05-26T08:07:33.066Z,945.6
2017-05-26T08:08:41.114Z,945.6
2017-05-26T08:09:49.195Z,945.6
2017-05-26T08:10:57.403Z,945.6
2017-05-26T08:12:05.366Z,945.6
2017-05-26T08:13:13.454Z,945.6
2017-05-26T08:14:21.536Z,945.6
2017-05-26T08:15:29.625Z,945.6
2017-05-26T08:16:37.838Z,945.6
2017-05-26T08:17:46.033Z,945.6
2017-05-26T08:18:54.075Z,945.6
2017-05-26T08:20:01.963Z,945.6
2017-05-26T08:21:10.050Z,945.5
2017-05-26T08:22:18.261Z,945.6
2017-05-26T08:23:26.226Z,945.6
2017-05-26T08:24:34.500Z,945.5
2017-05-26T08:25:42.394Z,945.5
2017-05-26T08:26:50.480Z,945.5
2017-05-26T08:27:58.622Z,945.5
2017-05-26T08:29:06.651Z,945.5
2017-05-26T08:30:14.850Z,945.5
2017-05-26T08:31:22.823Z,945.5
2017-05-26T08:32:30.910Z,945.5
2017-05-26T08:33:39.115Z,945.4
2017-05-26T08:34:47.088Z,945.5
2017-05-26T08:35:55.171Z,945.5
2017-05-26T08:37:03.337Z,945.5
2017-05-26T08:38:11.341Z,945.5
2017-05-26T08:39:19.546Z,945.5
2017-05-26T08:40:27.513Z,945.5
2017-05-26T08:41:35.599Z,945.5
2017-05-26T08:42:43.687Z,945.6
2017-05-26T08:43:51.771Z,945.6
2017-05-26T08:44:59.984Z,945.5
2017-05-26T08:46:07.954Z,945.5
2017-05-26T08:47:16.040Z,945.5
2017-05-26T08:48:24.129Z,945.5
2017-05-26T08:49:32.271Z,945.5
2017-05-26T08:50:40.421Z,945.5
2017-05-26T08:51:48.390Z,945.5
2017-05-26T08:52:56.471Z,945.5
2017-05-26T08:54:04.636Z,945.6
2017-05-26T08:55:12.641Z,945.6
2017-05-26T08:56:20.785Z,945.5
2017-05-26T08:57:28.814Z,945.5
2017-05-26T08:58:36.900Z,945.5
2017-05-26T08:59:45.085Z,945.5
2017-05-26T09:00:53.072Z,945.5
2017-05-26T09:02:01.280Z,945.6
2017-05-26T09:03:09.252Z,945.6
2017-05-26T09:04:17.337Z,945.6
2017-05-26T09:05:25.509Z,945.5
2017-05-26T09:06:33.560Z,945.5
2017-05-26T09:07:41.714Z,945.5
2017-05-26T09:08:49.679Z,945.5
2017-05-26T09:09:57.769Z,945.5
2017-05-26T09:11:05.853Z,945.5
2017-05-26T09:12:14.002Z,945.6
2017-05-26T09:13:22.145Z,945.5
2017-05-26T09:14:30.112Z,945.5
2017-05-26T09:15:38.196Z,945.4
2017-05-26T09:16:46.282Z,945.5
2017-05-26T09:17:54.379Z,945.4
2017-05-26T09:19:02.576Z,945.5
2017-05-26T09:20:10.545Z,945.5
2017-05-26T09:21:18.749Z,945.5
2017-05-26T09:22:26.716Z,945.5
2017-05-26T09:23:34.803Z,945.5
2017-05-26T09:24:42.947Z,945.6
2017-05-26T09:25:50.975Z,945.5
2017-05-26T09:26:59.062Z,945.5
2017-05-26T09:28:07.149Z,945.5
2017-05-26T09:29:15.390Z,945.6
2017-05-26T09:30:23.442Z,945.5
2017-05-26T09:31:31.405Z,945.5
2017-05-26T09:32:39.490Z,945.5
2017-05-26T09:33:47.577Z,945.5
2017-05-26T09:34:55.667Z,945.6
2017-05-26T09:36:03.897Z,945.5
2017-05-26T09:37:11.959Z,945.5
2017-05-26T09:38:19.923Z,945.5
2017-05-26T09:39:28.019Z,945.5
2017-05-26T09:40:36.096Z,945.5
2017-05-26T09:41:44.315Z,945.5
2017-05-26T09:42:52.276Z,945.6
2017-05-26T09:44:00.363Z,945.5
2017-05-26T09:45:08.455Z,945.5
2017-05-26T09:46:16.542Z,945.5
2017-05-26T09:47:24.751Z,945.5
2017-05-26T09:48:32.714Z,945.5
2017-05-26T09:49:40.803Z,945.5
2017-05-26T09:50:48.886Z,945.5
2017-05-26T09:51:56.978Z,945.5
2017-05-26T09:53:05.179Z,945.6
2017-05-26T09:54:13.188Z,945.5
2017-05-26T09:55:21.259Z,945.5
2017-05-26T09:56:29.318Z,945.5
2017-05-26T09:57:37.404Z,945.5
2017-05-26T09:58:45.612Z,945.5
2017-05-26T09:59:53.577Z,945.5
2017-05-26T10:01:01.663Z,945.5
2017-05-26T10:02:09.747Z,945.5
2017-05-26T10:03:18.029Z,945.5
2017-05-26T10:04:25.978Z,945.5
2017-05-26T10:05:34.135Z,945.5
2017-05-26T10:06:42.201Z,945.5
2017-05-26T10:07:50.182Z,945.5
2017-05-26T10:08:58.321Z,945.5
2017-05-26T10:10:06.408Z,945.5
2017-05-26T10:11:14.439Z,945.5
2017-05-26T10:12:22.525Z,945.5
2017-05-26T10:13:30.620Z,945.5
2017-05-26T10:14:38.698Z,945.4
2017-05-26T10:15:46.905Z,945.4
2017-05-26T10:16:54.871Z,945.5
2017-05-26T10:18:03.005Z,945.5
2017-05-26T10:19:11.043Z,945.5
2017-05-26T10:20:19.129Z,945.5
2017-05-26T10:21:27.334Z,945.5
2017-05-26T10:22:35.300Z,945.5
2017-05-26T10:23:43.558Z,945.5
2017-05-26T10:24:51.593Z,945.5
2017-05-26T10:25:59.562Z,945.5
2017-05-26T10:27:07.766Z,945.5
2017-05-26T10:28:15.744Z,945.5
2017-05-26T10:29:23.916Z,945.5
2017-05-26T10:30:31.910Z,945.5
2017-05-26T10:31:39.993Z,945.5
2017-05-26T10:32:48.203Z,945.5
2017-05-26T10:33:56.171Z,945.5
2017-05-26T10:35:04.307Z,945.5
2017-05-26T10:36:12.399Z,945.5
2017-05-26T10:37:20.431Z,945.5
2017-05-26T10:38:28.638Z,945.5
2017-05-26T10:39:36.604Z,945.4
2017-05-26T10:40:44.813Z,945.4
2017-05-26T10:41:52.780Z,945.5
2017-05-26T10:43:00.865Z,945.5
2017-05-26T10:44:09.007Z,945.4
2017-05-26T10:45:17.037Z,945.4
2017-05-26T10:46:25.122Z,945.4
2017-05-26T10:47:33.209Z,945.4
2017-05-26T10:48:41.295Z,945.4
2017-05-26T10:49:49.501Z,945.4
2017-05-26T10:50:57.468Z,945.3
2017-05-26T10:52:05.625Z,945.3
2017-05-26T10:53:13.640Z,945.3
2017-05-26T10:54:21.731Z,945.3
2017-05-26T10:55:29.938Z,945.3
2017-05-26T10:56:37.965Z,945.3
2017-05-26T10:57:45.996Z,945.4
2017-05-26T10:58:54.084Z,945.4
2017-05-26T11:00:02.176Z,945.4
2017-05-26T11:01:10.318Z,945.3
2017-05-26T11:02:18.347Z,945.3
2017-05-26T11:03:26.432Z,945.2
2017-05-26T11:04:34.519Z,945.2
2017-05-26T11:05:42.606Z,945.3
2017-05-26T11:06:50.812Z,945.2
2017-05-26T11:07:58.779Z,945.2
2017-05-26T11:09:06.866Z,945.2
2017-05-26T11:10:14.952Z,945.2
2017-05-26T11:11:23.221Z,945.2
2017-05-26T11:12:31.247Z,945.2
2017-05-26T11:13:39.209Z,945.2
2017-05-26T11:14:47.298Z,945.2
2017-05-26T11:15:55.384Z,945.2
2017-05-26T11:17:03.589Z,945.2
2017-05-26T11:18:11.709Z,945.2
2017-05-26T11:19:19.643Z,945.2
2017-05-26T11:20:27.732Z,945.2
2017-05-26T11:21:35.818Z,945.2
2017-05-26T11:22:43.905Z,945.2
2017-05-26T11:23:52.209Z,945.1
2017-05-26T11:25:00.075Z,945.1
2017-05-26T11:26:08.160Z,945.1
2017-05-26T11:27:16.248Z,945.2
2017-05-26T11:28:24.456Z,945.1
2017-05-26T11:29:32.585Z,945.0
2017-05-26T11:30:40.564Z,945.0
2017-05-26T11:31:48.596Z,945.1
2017-05-26T11:32:56.684Z,945.0
2017-05-26T11:34:04.770Z,945.0
2017-05-26T11:35:12.912Z,945.0
2017-05-26T11:36:20.947Z,945.0
2017-05-26T11:37:29.031Z,945.0
2017-05-26T11:38:37.118Z,945.0
2017-05-26T11:39:45.204Z,944.9
2017-05-26T11:40:53.411Z,945.0
2017-05-26T11:42:01.379Z,945.0
2017-05-26T11:43:09.463Z,944.9
2017-05-26T11:44:17.678Z,945.0
2017-05-26T11:45:25.634Z,944.9
2017-05-26T11:46:33.944Z,944.9
2017-05-26T11:47:41.996Z,944.8
2017-05-26T11:48:49.898Z,944.8
2017-05-26T11:49:57.984Z,944.9
2017-05-26T11:51:06.072Z,944.9
2017-05-26T11:52:14.285Z,944.8
2017-05-26T11:53:22.242Z,944.9
2017-05-26T11:54:30.329Z,944.8
2017-05-26T11:55:38.419Z,944.8
2017-05-26T11:56:46.504Z,944.8
2017-05-26T11:57:54.710Z,944.8
2017-05-26T11:59:02.844Z,944.8
2017-05-26T12:00:10.887Z,944.8
2017-05-26T12:01:18.850Z,944.7
2017-05-26T12:02:26.936Z,944.8
2017-05-26T12:03:35.076Z,944.8
2017-05-26T12:04:43.115Z,944.7
2017-05-26T12:05:51.381Z,944.7
2017-05-26T12:06:59.297Z,944.7
2017-05-26T12:08:07.385Z,944.7
2017-05-26T12:09:15.596Z,944.8
2017-05-26T12:10:23.562Z,944.7
2017-05-26T12:11:31.650Z,944.7
2017-05-26T12:12:39.738Z,944.7
2017-05-26T12:13:47.824Z,944.7
2017-05-26T12:14:55.969Z,944.7
2017-05-26T12:16:04.119Z,944.7
2017-05-26T12:17:12.093Z,944.7
2017-05-26T12:18:20.193Z,944.7
2017-05-26T12:19:28.258Z,944.7
2017-05-26T12:20:36.465Z,944.7
2017-05-26T12:21:44.430Z,944.6
2017-05-26T12:22:52.525Z,944.7
2017-05-26T12:24:00.606Z,944.6
2017-05-26T12:25:08.692Z,944.6
2017-05-26T12:26:16.906Z,944.6
2017-05-26T12:27:24.874Z,944.7
2017-05-26T12:28:33.135Z,944.6
2017-05-26T12:29:41.041Z,944.6
2017-05-26T12:30:49.127Z,944.7
2017-05-26T12:31:57.764Z,944.7
2017-05-26T12:33:05.301Z,944.6
2017-05-26T12:34:13.511Z,944.6
2017-05-26T12:35:21.545Z,944.6
2017-05-26T12:36:29.563Z,944.6
2017-05-26T12:37:38.164Z,944.6
2017-05-26T12:38:45.738Z,944.5
2017-05-26T12:39:53.825Z,944.6
2017-05-26T12:41:02.071Z,944.6
2017-05-26T12:42:09.993Z,944.5
2017-05-26T12:43:18.209Z,944.5
2017-05-26T12:44:26.176Z,944.5
2017-05-26T12:45:34.262Z,944.5
2017-05-26T12:46:42.467Z,944.5
2017-05-26T12:47:50.645Z,944.5
2017-05-26T12:48:58.643Z,944.5
2017-05-26T12:50:06.609Z,944.5
2017-05-26T12:51:14.695Z,944.5
2017-05-26T12:52:22.784Z,944.5
2017-05-26T12:53:30.938Z,944.4
2017-05-26T12:54:39.079Z,944.5
2017-05-26T12:55:47.049Z,944.4
2017-05-26T12:56:55.132Z,944.4
2017-05-26T12:58:03.217Z,944.3
2017-05-26T12:59:11.318Z,944.3
2017-05-26T13:00:19.573Z,944.4
2017-05-26T13:01:27.482Z,944.3
2017-05-26T13:02:35.569Z,944.3
2017-05-26T13:03:43.711Z,944.3
2017-05-26T13:04:51.747Z,944.3
2017-05-26T13:05:59.965Z,944.2
2017-05-26T13:07:07.925Z,944.3
2017-05-26T13:08:16.009Z,944.2
2017-05-26T13:09:24.094Z,944.3
2017-05-26T13:10:32.185Z,944.2
2017-05-26T13:11:40.390Z,944.2
2017-05-26T13:12:48.360Z,944.2
2017-05-26T13:13:56.448Z,944.2
2017-05-26T13:15:04.533Z,944.2
2017-05-26T13:16:12.683Z,944.2
2017-05-26T13:17:21.014Z,944.2
2017-05-26T13:18:28.792Z,944.1
2017-05-26T13:19:36.935Z,944.2
2017-05-26T13:20:44.967Z,944.2
2017-05-26T13:21:53.053Z,944.2
2017-05-26T13:23:01.367Z,944.2
2017-05-26T13:24:09.231Z,944.2
2017-05-26T13:25:17.318Z,944.2
2017-05-26T13:26:25.400Z,944.2
2017-05-26T13:27:33.488Z,944.2
2017-05-26T13:28:41.695Z,944.2
2017-05-26T13:29:49.663Z,944.2
2017-05-26T13:30:57.750Z,944.1
2017-05-26T13:32:05.837Z,944.2
2017-05-26T13:33:13.924Z,944.2
2017-05-26T13:34:22.128Z,944.2
2017-05-26T13:35:30.238Z,944.2
2017-05-26T13:36:38.184Z,944.1
2017-05-26T13:37:46.270Z,944.1
2017-05-26T13:38:54.357Z,944.1
2017-05-26T13:40:02.504Z,944.1
2017-05-26T13:41:10.535Z,944.1
2017-05-26T13:42:18.621Z,944.1
2017-05-26T13:43:26.718Z,944.1
2017-05-26T13:44:34.804Z,944.0
2017-05-26T13:45:43.003Z,944.1
2017-05-26T13:46:50.970Z,944.0
2017-05-26T13:47:59.060Z,944.0
2017-05-26T13:49:07.144Z,944.0
2017-05-26T13:50:15.232Z,944.0
2017-05-26T13:51:23.377Z,944.0
2017-05-26T13:52:31.406Z,944.0
2017-05-26T13:53:39.498Z,943.9
2017-05-26T13:54:47.577Z,944.0
2017-05-26T13:55:55.678Z,944.0
2017-05-26T13:57:03.883Z,944.0
2017-05-26T13:58:11.994Z,943.9
2017-05-26T13:59:19.941Z,943.9
2017-05-26T14:00:28.029Z,943.9
2017-05-26T14:01:36.166Z,943.9
2017-05-26T14:02:44.257Z,943.8
2017-05-26T14:03:52.294Z,943.8
2017-05-26T14:05:00.502Z,943.8
2017-05-26T14:06:08.472Z,943.8
2017-05-26T14:07:16.676Z,943.8
2017-05-26T14:08:24.764Z,943.8
2017-05-26T14:09:32.729Z,943.9
2017-05-26T14:10:40.881Z,943.8
2017-05-26T14:11:48.905Z,943.9
2017-05-26T14:12:56.991Z,943.9
2017-05-26T14:14:05.134Z,943.9
2017-05-26T14:15:13.169Z,943.9
2017-05-26T14:16:21.322Z,943.9
2017-05-26T14:17:29.444Z,943.9
2017-05-26T14:18:37.429Z,943.8
2017-05-26T14:19:45.571Z,943.8
2017-05-26T14:20:53.604Z,943.8
2017-05-26T14:22:01.690Z,943.7
2017-05-26T14:23:09.986Z,943.7
2017-05-26T14:24:17.863Z,943.8
2017-05-26T14:25:26.072Z,943.8
2017-05-26T14:26:34.042Z,943.7
2017-05-26T14:27:42.127Z,943.8
2017-05-26T14:28:50.213Z,943.8
2017-05-26T14:29:58.302Z,943.8
2017-05-26T14:31:06.506Z,943.8
2017-05-26T14:32:14.472Z,943.8
2017-05-26T14:33:22.562Z,943.7
2017-05-26T14:34:30.653Z,943.7
2017-05-26T14:35:38.737Z,943.7
2017-05-26T14:36:46.944Z,943.7